Time;durP1;ratioP1;P1;durP2;ratioP2;P2;SDS_P1;SDS_P2;PMS_P1;PMS_P2;Temp;Humidity;BMP_temperature;BMP_pressure;BME280_temperature;BME280_humidity;BME280_pressure;Samples;Min_cycle;Max_cycle;Signal;HPM_P1;HPM_P2
2022/08/07 00:00:24;;;;;;;1.45;1.23;;;19.30;80.00;;;;;;5126049;28;20222;-37
2022/08/07 00:02:52;;;;;;;2.20;1.40;;;19.30;79.90;;;;;;5111088;28;20884;-37
2022/08/07 00:05:20;;;;;;;1.30;1.20;;;19.30;80.30;;;;;;5110973;28;20255;-37
2022/08/07 00:07:51;;;;;;;3.08;1.70;;;19.30;80.60;;;;;;5120839;27;20197;-37
2022/08/07 00:10:27;;;;;;;2.08;1.23;;;19.20;81.20;;;;;;5132205;27;20197;-37
2022/08/07 00:12:59;;;;;;;2.85;1.67;;;19.20;80.20;;;;;;5132240;27;20189;-37
2022/08/07 00:15:30;;;;;;;3.50;1.73;;;19.20;80.50;;;;;;5103265;28;20712;-37
2022/08/07 00:18:19;;;;;;;4.90;1.50;;;19.10;81.80;;;;;;5120675;27;20227;-37
2022/08/07 00:20:55;;;;;;;2.90;1.10;;;19.10;80.60;;;;;;5131740;27;20205;-38
2022/08/07 00:23:28;;;;;;;2.13;1.45;;;19.00;80.60;;;;;;5114398;27;20235;-38
2022/08/07 00:25:59;;;;;;;1.63;1.30;;;19.00;80.40;;;;;;5132501;27;20589;-37
2022/08/07 00:28:45;;;;;;;2.63;1.52;;;18.90;80.30;;;;;;5132644;27;20663;-37
2022/08/07 00:31:24;;;;;;;3.38;1.52;;;18.90;80.60;;;;;;5114502;27;20213;-37
2022/08/07 00:34:04;;;;;;;2.25;1.48;;;18.90;80.60;;;;;;5111122;28;20198;-37
2022/08/07 00:36:35;;;;;;;2.95;1.40;;;18.80;81.00;;;;;;5111123;28;20218;-37
2022/08/07 00:39:04;;;;;;;1.58;1.48;;;18.80;82.10;;;;;;5111064;28;20210;-37
2022/08/07 00:41:33;;;;;;;1.75;1.60;;;18.80;80.80;;;;;;5110942;28;20210;-38
2022/08/07 00:44:20;;;;;;;3.00;1.40;;;18.70;81.30;;;;;;5111372;28;20214;-37
2022/08/07 00:46:47;;;;;;;2.88;1.80;;;18.70;80.80;;;;;;5076203;28;20199;-37
2022/08/07 00:49:14;;;;;;;2.83;1.70;;;18.70;82.10;;;;;;5092480;28;20293;-36
2022/08/07 00:52:05;;;;;;;1.98;1.70;;;18.70;81.50;;;;;;5110274;28;20229;-37
2022/08/07 00:54:38;;;;;;;1.98;1.40;;;18.70;81.40;;;;;;5111358;28;20251;-37
2022/08/07 00:57:08;;;;;;;2.33;1.40;;;18.60;81.10;;;;;;5110998;28;20596;-37
2022/08/07 00:59:40;;;;;;;3.17;1.60;;;18.60;81.20;;;;;;5112505;27;20224;-38
2022/08/07 01:02:09;;;;;;;1.92;1.80;;;18.50;81.40;;;;;;5096404;27;20202;-37
2022/08/07 01:04:58;;;;;;;2.42;1.70;;;18.50;81.80;;;;;;5122712;27;20271;-37
2022/08/07 01:07:28;;;;;;;2.97;1.50;;;18.50;81.80;;;;;;5101355;27;20289;-37
2022/08/07 01:09:59;;;;;;;9.35;2.08;;;18.50;82.40;;;;;;5116266;27;20281;-37
2022/08/07 01:12:40;;;;;;;4.70;1.40;;;18.50;82.10;;;;;;5095417;28;20212;-37
2022/08/07 01:15:24;;;;;;;3.15;1.60;;;18.50;82.10;;;;;;5107339;28;20220;-37
2022/08/07 01:18:12;;;;;;;3.47;1.80;;;18.40;81.60;;;;;;5125362;27;20205;-37
2022/08/07 01:21:01;;;;;;;3.50;1.75;;;18.40;82.10;;;;;;5110775;27;20318;-37
2022/08/07 01:23:31;;;;;;;5.35;1.83;;;18.50;82.10;;;;;;5113602;27;20221;-37
2022/08/07 01:26:10;;;;;;;2.58;1.70;;;18.40;81.70;;;;;;5120489;27;20729;-37
2022/08/07 01:28:42;;;;;;;2.60;1.63;;;18.40;81.80;;;;;;5112424;27;20190;-35
2022/08/07 01:31:26;;;;;;;1.90;1.75;;;18.40;82.40;;;;;;5134951;27;20213;-36
2022/08/07 01:34:08;;;;;;;2.33;1.88;;;18.30;82.40;;;;;;5129344;27;20587;-36
2022/08/07 01:36:35;;;;;;;3.65;2.00;;;18.30;82.50;;;;;;5109688;27;20284;-37
2022/08/07 01:39:07;;;;;;;2.47;1.80;;;18.30;81.90;;;;;;5130450;27;20733;-35
2022/08/07 01:41:38;;;;;;;2.67;2.00;;;18.20;82.10;;;;;;5130649;27;20724;-37
2022/08/07 01:44:26;;;;;;;1.87;1.60;;;18.20;81.90;;;;;;5110943;27;20218;-38
2022/08/07 01:46:54;;;;;;;3.23;1.90;;;18.20;82.10;;;;;;5110180;28;20195;-37
2022/08/07 01:49:21;;;;;;;4.40;1.83;;;18.20;82.10;;;;;;5109499;28;20249;-37
2022/08/07 01:51:52;;;;;;;3.22;2.00;;;18.20;82.20;;;;;;5109535;28;20259;-37
2022/08/07 01:54:38;;;;;;;2.83;1.90;;;18.20;82.20;;;;;;5109709;28;20285;-38
2022/08/07 01:57:07;;;;;;;4.32;1.90;;;18.10;82.20;;;;;;5092490;28;20209;-36
2022/08/07 01:59:59;;;;;;;2.05;1.83;;;18.10;82.20;;;;;;5115692;27;20205;-36
2022/08/07 02:02:39;;;;;;;6.05;2.38;;;18.10;83.00;;;;;;5130413;27;20249;-36
2022/08/07 02:05:33;;;;;;;2.85;1.83;;;18.00;83.10;;;;;;5129274;27;20610;-36
2022/08/07 02:08:19;;;;;;;2.97;2.45;;;18.00;82.90;;;;;;5129928;27;20209;-36
2022/08/07 02:10:52;;;;;;;2.50;2.20;;;18.00;82.80;;;;;;5130077;27;20190;-36
2022/08/07 02:13:28;;;;;;;3.95;2.60;;;18.00;82.70;;;;;;5127810;27;20201;-36
2022/08/07 02:16:17;;;;;;;2.95;2.45;;;18.00;82.80;;;;;;5110643;28;20204;-36
2022/08/07 02:18:49;;;;;;;4.65;2.40;;;18.00;82.60;;;;;;5129545;27;20567;-36
2022/08/07 02:21:19;;;;;;;2.72;1.95;;;17.90;82.70;;;;;;5111653;27;20201;-41
2022/08/07 02:23:47;;;;;;;3.92;2.70;;;17.90;82.70;;;;;;5129386;27;20213;-41
2022/08/07 02:26:16;;;;;;;3.83;2.45;;;17.90;82.90;;;;;;5129434;27;20738;-41
2022/08/07 02:29:05;;;;;;;3.03;2.50;;;17.80;83.00;;;;;;5130970;27;20220;-44
2022/08/07 02:31:40;;;;;;;3.47;2.40;;;17.80;83.10;;;;;;5124134;27;20214;-42
2022/08/07 02:34:11;;;;;;;3.03;2.20;;;17.80;83.20;;;;;;5098632;27;20584;-42
2022/08/07 02:36:44;;;;;;;4.20;2.63;;;17.70;83.30;;;;;;5129103;27;20204;-42
2022/08/07 02:39:14;;;;;;;3.25;2.40;;;17.70;83.30;;;;;;5110014;27;20288;-44
2022/08/07 02:42:02;;;;;;;5.07;2.50;;;17.60;83.20;;;;;;5125683;27;20653;-44
2022/08/07 02:44:38;;;;;;;4.15;2.60;;;17.60;83.40;;;;;;5129397;27;20221;-44
2022/08/07 02:47:17;;;;;;;3.10;2.70;;;17.60;83.30;;;;;;5112119;27;20207;-43
2022/08/07 02:49:46;;;;;;;5.37;2.90;;;17.60;83.60;;;;;;5090519;28;20689;-36
2022/08/07 02:52:31;;;;;;;2.95;2.30;;;17.60;83.10;;;;;;5128190;27;21035;-38
2022/08/07 02:55:14;;;;;;;3.80;2.90;;;17.50;83.40;;;;;;5128973;27;20255;-37
2022/08/07 02:58:06;;;;;;;2.90;2.60;;;17.50;83.70;;;;;;5129088;27;20247;-37
2022/08/07 03:00:37;;;;;;;2.87;2.60;;;17.50;83.60;;;;;;5129312;27;20198;-37
2022/08/07 03:03:07;;;;;;;3.85;3.00;;;17.50;83.70;;;;;;5111292;27;20197;-38
2022/08/07 03:05:50;;;;;;;3.93;3.00;;;17.50;83.60;;;;;;5127827;28;20248;-38
2022/08/07 03:08:23;;;;;;;3.17;2.87;;;17.40;83.70;;;;;;5100360;28;20742;-38
2022/08/07 03:10:55;;;;;;;3.63;2.47;;;17.40;83.70;;;;;;5108882;28;20197;-37
2022/08/07 03:13:25;;;;;;;3.42;2.67;;;17.40;84.10;;;;;;5108598;28;20654;-37
2022/08/07 03:15:54;;;;;;;5.20;2.95;;;17.40;83.70;;;;;;5090335;28;20637;-38
2022/08/07 03:18:26;;;;;;;9.73;3.40;;;17.40;83.90;;;;;;5090632;28;20198;-37
2022/08/07 03:21:05;;;;;;;3.80;2.80;;;17.40;84.10;;;;;;5108090;28;20579;-36
2022/08/07 03:23:39;;;;;;;4.68;3.00;;;17.40;84.30;;;;;;5098616;28;20623;-37
2022/08/07 03:26:32;;;;;;;3.80;3.00;;;17.30;84.00;;;;;;5128106;28;20314;-38
2022/08/07 03:29:02;;;;;;;3.90;3.17;;;17.30;84.20;;;;;;5129917;27;20637;-37
2022/08/07 03:31:34;;;;;;;4.72;3.38;;;17.30;84.00;;;;;;5132030;27;20670;-36
2022/08/07 03:34:16;;;;;;;3.30;2.80;;;17.30;84.20;;;;;;5149510;27;20212;-41
2022/08/07 03:36:50;;;;;;;4.65;3.58;;;17.30;84.10;;;;;;5152711;27;20199;-41
2022/08/07 03:39:21;;;;;;;4.10;3.40;;;17.30;84.60;;;;;;5133475;27;20209;-43
2022/08/07 03:42:10;;;;;;;5.05;3.22;;;17.30;84.30;;;;;;5113026;27;20650;-36
2022/08/07 03:44:41;;;;;;;4.43;3.03;;;17.30;84.20;;;;;;5117309;27;20181;-36
2022/08/07 03:47:14;;;;;;;5.35;3.55;;;17.30;84.50;;;;;;5122110;27;20288;-35
2022/08/07 03:49:46;;;;;;;7.60;3.10;;;17.20;84.50;;;;;;5114043;27;20214;-36
2022/08/07 03:52:22;;;;;;;4.25;3.08;;;17.20;84.60;;;;;;5115503;27;20205;-36
2022/08/07 03:54:56;;;;;;;5.73;2.97;;;17.10;84.70;;;;;;5132600;27;20196;-36
2022/08/07 03:57:35;;;;;;;5.53;3.80;;;17.10;84.60;;;;;;5132001;27;20229;-37
2022/08/07 04:00:23;;;;;;;4.50;3.33;;;17.10;84.70;;;;;;5113444;27;20793;-36
2022/08/07 04:03:00;;;;;;;4.05;3.63;;;17.10;84.80;;;;;;5112060;28;20209;-36
2022/08/07 04:05:34;;;;;;;7.53;3.50;;;17.10;84.80;;;;;;5111066;28;20214;-36
2022/08/07 04:08:14;;;;;;;5.38;4.53;;;17.10;85.60;;;;;;5111973;28;20601;-36
2022/08/07 04:10:48;;;;;;;4.25;3.70;;;17.10;88.80;;;;;;5130821;27;20205;-36
2022/08/07 04:13:36;;;;;;;4.40;3.97;;;17.10;86.10;;;;;;5105198;28;20201;-36
2022/08/07 04:16:26;;;;;;;4.70;4.18;;;17.10;86.00;;;;;;5106916;27;20296;-37
2022/08/07 04:19:02;;;;;;;5.93;4.10;;;17.10;86.40;;;;;;5114176;27;20209;-36
2022/08/07 04:21:41;;;;;;;5.90;4.03;;;17.00;87.30;;;;;;5131947;27;20201;-36
2022/08/07 04:24:27;;;;;;;5.03;4.07;;;17.00;86.60;;;;;;5131765;27;20344;-36
2022/08/07 04:27:04;;;;;;;4.80;4.30;;;17.00;87.70;;;;;;5115443;27;20258;-36
2022/08/07 04:29:46;;;;;;;5.23;4.30;;;16.90;88.10;;;;;;5128320;27;20194;-36
2022/08/07 04:32:30;;;;;;;5.40;4.00;;;16.90;86.60;;;;;;5114329;27;20298;-36
2022/08/07 04:35:03;;;;;;;7.25;4.43;;;16.90;86.20;;;;;;5131037;27;20290;-36
2022/08/07 04:37:34;;;;;;;7.63;4.35;;;16.80;86.70;;;;;;5131909;27;20324;-36
2022/08/07 04:40:23;;;;;;;6.23;4.10;;;16.80;86.50;;;;;;5109750;28;20202;-36
2022/08/07 04:42:56;;;;;;;5.38;4.20;;;16.80;86.10;;;;;;5094272;28;20259;-36
2022/08/07 04:45:46;;;;;;;5.32;4.03;;;16.80;86.10;;;;;;5093682;28;20342;-36
2022/08/07 04:48:40;;;;;;;5.77;4.30;;;16.80;86.20;;;;;;5110725;27;20213;-37
2022/08/07 04:51:26;;;;;;;6.50;4.23;;;16.70;86.30;;;;;;5106537;27;20193;-35
2022/08/07 04:54:04;;;;;;;4.20;3.80;;;16.70;86.00;;;;;;5131706;27;20202;-38
2022/08/07 04:56:58;;;;;;;9.20;4.78;;;16.70;86.50;;;;;;5131564;27;20718;-35
2022/08/07 05:00:02;;;;;;;4.90;3.93;;;16.70;87.20;;;;;;5131208;27;20280;-44
2022/08/07 05:03:11;;;;;;;6.10;4.17;;;16.70;86.30;;;;;;5131691;27;20197;-41
2022/08/07 05:05:58;;;;;;;3.95;3.60;;;16.70;87.20;;;;;;5110114;28;20210;-41
2022/08/07 05:08:50;;;;;;;9.97;4.90;;;16.70;86.20;;;;;;5123318;27;20521;-42
2022/08/07 05:11:41;;;;;;;4.30;3.87;;;16.70;86.80;;;;;;5110670;28;20218;-40
2022/08/07 05:14:39;;;;;;;7.83;4.37;;;16.80;87.20;;;;;;5110397;28;20218;-42
2022/08/07 05:17:28;;;;;;;6.18;4.10;;;16.80;86.90;;;;;;5110720;28;20202;-42
2022/08/07 05:20:25;;;;;;;5.25;4.50;;;16.80;87.00;;;;;;5095066;27;20285;-41
2022/08/07 05:22:58;;;;;;;5.07;4.57;;;16.80;88.40;;;;;;5110370;28;20251;-44
2022/08/07 05:25:30;;;;;;;5.90;4.70;;;16.80;89.10;;;;;;5110862;27;20663;-42
2022/08/07 05:28:19;;;;;;;5.50;4.27;;;16.80;88.90;;;;;;5110648;28;20621;-43
2022/08/07 05:30:56;;;;;;;6.82;4.68;;;16.80;87.90;;;;;;5144786;27;20211;-43
2022/08/07 05:33:29;;;;;;;7.55;4.47;;;16.70;87.60;;;;;;5151483;27;20201;-42
2022/08/07 05:36:03;;;;;;;5.10;4.50;;;16.70;87.70;;;;;;5151117;27;20199;-42
2022/08/07 05:38:32;;;;;;;5.33;4.43;;;16.70;88.30;;;;;;5127608;27;20267;-41
2022/08/07 05:41:21;;;;;;;8.40;4.33;;;16.70;88.20;;;;;;5120321;27;20242;-43
2022/08/07 05:43:51;;;;;;;7.55;4.57;;;16.70;87.90;;;;;;5130456;27;20206;-42
2022/08/07 05:46:40;;;;;;;6.88;4.78;;;16.80;88.30;;;;;;5130407;27;20320;-43
2022/08/07 05:49:13;;;;;;;4.93;4.40;;;16.80;88.60;;;;;;5130019;27;20221;-44
2022/08/07 05:51:42;;;;;;;6.50;5.00;;;16.80;87.90;;;;;;5130155;27;20280;-43
2022/08/07 05:54:14;;;;;;;6.20;5.25;;;16.80;88.50;;;;;;5129216;27;20343;-43
2022/08/07 05:57:02;;;;;;;7.82;5.63;;;16.80;88.20;;;;;;5130166;27;20213;-43
2022/08/07 05:59:33;;;;;;;6.07;4.70;;;16.90;89.10;;;;;;5086895;28;20242;-43
2022/08/07 06:02:23;;;;;;;6.25;4.90;;;16.90;89.30;;;;;;5097038;28;20198;-42
2022/08/07 06:05:00;;;;;;;6.88;5.50;;;16.90;89.00;;;;;;5108755;28;20220;-35
2022/08/07 06:07:31;;;;;;;6.82;5.10;;;16.90;89.80;;;;;;5097696;28;20730;-35
2022/08/07 06:10:22;;;;;;;7.07;5.20;;;16.90;89.40;;;;;;5102601;28;20687;-35
2022/08/07 06:12:49;;;;;;;6.77;5.30;;;16.90;89.60;;;;;;5108601;28;20224;-36
2022/08/07 06:15:21;;;;;;;5.47;4.93;;;16.90;89.20;;;;;;5099526;28;20219;-35
2022/08/07 06:18:06;;;;;;;5.90;5.30;;;16.90;89.20;;;;;;5088955;28;20293;-35
2022/08/07 06:20:38;;;;;;;8.10;4.95;;;16.90;89.20;;;;;;5106259;28;20289;-35
2022/08/07 06:23:28;;;;;;;8.13;4.80;;;17.00;89.10;;;;;;5109299;28;20692;-35
2022/08/07 06:26:16;;;;;;;6.60;5.23;;;17.00;89.20;;;;;;5109314;28;20331;-41
2022/08/07 06:29:02;;;;;;;7.77;5.53;;;17.00;90.10;;;;;;5102910;28;20254;-42
2022/08/07 06:31:37;;;;;;;4.63;4.13;;;17.10;90.70;;;;;;5089722;28;20202;-41
2022/08/07 06:34:16;;;;;;;5.73;4.90;;;17.10;89.60;;;;;;5087250;28;20205;-42
2022/08/07 06:36:47;;;;;;;6.33;5.20;;;17.10;90.00;;;;;;5088420;28;20207;-42
2022/08/07 06:39:19;;;;;;;4.97;4.40;;;17.20;89.70;;;;;;5090984;28;20199;-40
2022/08/07 06:42:16;;;;;;;7.77;4.80;;;17.20;90.00;;;;;;5108725;28;20212;-41
2022/08/07 06:44:46;;;;;;;5.47;4.60;;;17.30;90.00;;;;;;5108835;28;20194;-42
2022/08/07 06:47:21;;;;;;;7.55;5.45;;;17.40;89.70;;;;;;5091194;28;20576;-41
2022/08/07 06:49:51;;;;;;;7.13;5.72;;;17.40;90.40;;;;;;5102032;28;20251;-42
2022/08/07 06:52:30;;;;;;;6.25;4.60;;;17.50;90.50;;;;;;5108679;28;20201;-41
2022/08/07 06:55:13;;;;;;;6.57;5.55;;;17.50;90.00;;;;;;5107471;28;20193;-42
2022/08/07 06:58:06;;;;;;;7.07;5.53;;;17.50;90.20;;;;;;5108438;28;20230;-41
2022/08/07 07:00:40;;;;;;;7.75;4.80;;;17.50;90.10;;;;;;5108360;28;20448;-41
2022/08/07 07:03:11;;;;;;;5.03;4.13;;;17.60;90.00;;;;;;5107995;28;20282;-40
2022/08/07 07:05:44;;;;;;;4.80;4.07;;;17.60;90.10;;;;;;5100889;28;20677;-44
2022/08/07 07:08:31;;;;;;;5.65;4.50;;;17.70;90.10;;;;;;5095604;28;20557;-41
2022/08/07 07:11:03;;;;;;;6.18;5.32;;;17.70;90.20;;;;;;5107993;28;20275;-42
2022/08/07 07:13:53;;;;;;;7.75;5.55;;;17.80;90.40;;;;;;5108711;28;20198;-40
2022/08/07 07:16:33;;;;;;;5.43;4.65;;;17.80;90.40;;;;;;5108461;28;20247;-42
2022/08/07 07:19:31;;;;;;;5.57;4.70;;;17.90;90.20;;;;;;5106745;27;20210;-41
2022/08/07 07:22:19;;;;;;;4.80;4.18;;;17.90;90.30;;;;;;5089182;28;20611;-42
2022/08/07 07:25:11;;;;;;;6.32;4.68;;;18.00;90.30;;;;;;5107373;28;20635;-36
2022/08/07 07:28:11;;;;;;;5.13;4.63;;;18.00;90.30;;;;;;5107205;28;20212;-37
2022/08/07 07:31:18;;;;;;;7.07;4.50;;;18.00;90.50;;;;;;5125746;28;20202;-36
2022/08/07 07:33:52;;;;;;;6.90;4.13;;;18.10;90.40;;;;;;5128365;28;20197;-35
2022/08/07 07:36:24;;;;;;;6.53;4.80;;;18.10;90.40;;;;;;5123916;27;20291;-36
2022/08/07 07:39:04;;;;;;;5.65;4.75;;;18.20;90.80;;;;;;5087990;28;20195;-43
2022/08/07 07:41:33;;;;;;;5.15;4.65;;;18.30;90.70;;;;;;5088819;28;20223;-42
2022/08/07 07:44:21;;;;;;;6.38;5.00;;;18.40;90.60;;;;;;5087693;28;20199;-41
2022/08/07 07:46:54;;;;;;;5.10;3.92;;;18.40;90.80;;;;;;5088167;28;20238;-42
2022/08/07 07:49:44;;;;;;;5.15;3.88;;;18.50;90.60;;;;;;5087555;28;20203;-41
2022/08/07 07:52:33;;;;;;;5.28;3.70;;;18.50;90.60;;;;;;5088030;28;20203;-42
2022/08/07 07:55:04;;;;;;;3.75;3.35;;;18.60;90.60;;;;;;5087145;28;20226;-42
2022/08/07 07:57:36;;;;;;;4.45;4.00;;;18.70;90.60;;;;;;5099717;28;20605;-41
2022/08/07 08:00:18;;;;;;;4.30;3.58;;;18.70;90.70;;;;;;5108390;28;20214;-42
2022/08/07 08:03:08;;;;;;;4.65;3.80;;;18.80;90.70;;;;;;5108819;28;20606;-42
2022/08/07 08:05:43;;;;;;;4.70;3.90;;;18.90;90.80;;;;;;5100443;28;20206;-42
2022/08/07 08:08:26;;;;;;;4.88;3.65;;;18.90;90.70;;;;;;5087899;28;20198;-41
2022/08/07 08:11:06;;;;;;;7.25;4.07;;;19.00;90.90;;;;;;5096540;28;20203;-41
2022/08/07 08:13:38;;;;;;;4.68;3.20;;;19.10;90.80;;;;;;5088909;28;20214;-42
2022/08/07 08:16:39;;;;;;;5.85;3.85;;;19.10;90.90;;;;;;5096536;28;20603;-42
2022/08/07 08:19:09;;;;;;;7.38;3.85;;;19.20;91.00;;;;;;5107954;28;20251;-43
2022/08/07 08:27:56;;;;;;;3.72;3.13;;;19.40;90.90;;;;;;5104921;28;20234;-43
2022/08/07 08:30:34;;;;;;;6.53;3.25;;;19.40;90.90;;;;;;5111598;27;20576;-42
2022/08/07 08:33:15;;;;;;;4.43;2.80;;;19.50;91.00;;;;;;5091092;28;20291;-43
2022/08/07 08:35:47;;;;;;;3.35;2.70;;;19.50;91.00;;;;;;5090434;28;20206;-42
2022/08/07 08:38:22;;;;;;;2.45;2.25;;;19.60;90.90;;;;;;5091027;28;20237;-42
2022/08/07 08:41:24;;;;;;;4.18;2.75;;;19.60;90.90;;;;;;5090843;28;20198;-43
2022/08/07 08:44:02;;;;;;;2.72;2.38;;;19.70;91.00;;;;;;5089770;28;20310;-43
2022/08/07 08:46:30;;;;;;;2.33;2.00;;;19.70;90.90;;;;;;5091450;28;20230;-42
2022/08/07 08:49:08;;;;;;;2.38;1.90;;;19.70;90.90;;;;;;5104479;28;20202;-42
2022/08/07 08:52:00;;;;;;;3.40;2.10;;;19.80;91.00;;;;;;5110716;28;20225;-42
2022/08/07 08:55:11;;;;;;;3.67;2.50;;;19.80;91.00;;;;;;5111087;28;20206;-42
2022/08/07 08:58:11;;;;;;;4.15;2.60;;;19.90;91.00;;;;;;5084484;28;20261;-42
2022/08/07 09:00:53;;;;;;;4.22;2.35;;;20.00;90.90;;;;;;5111096;28;20732;-43
2022/08/07 09:03:33;;;;;;;4.43;2.50;;;20.10;90.90;;;;;;5110110;28;20214;-41
2022/08/07 09:06:39;;;;;;;2.80;2.22;;;20.20;90.80;;;;;;5091670;28;20226;-41
2022/08/07 09:09:21;;;;;;;3.05;1.95;;;20.20;90.80;;;;;;5104031;28;20213;-41
2022/08/07 09:12:05;;;;;;;2.63;1.77;;;20.30;90.80;;;;;;5111174;28;20198;-41
2022/08/07 09:15:10;;;;;;;3.88;1.67;;;20.30;90.80;;;;;;5110708;28;20194;-41
2022/08/07 09:18:36;;;;;;;3.70;1.60;;;20.40;90.90;;;;;;5110699;28;20209;-42
2022/08/07 09:21:24;;;;;;;4.00;2.30;;;20.40;91.00;;;;;;5026814;28;20300;-41
2022/08/07 09:24:23;;;;;;;5.47;2.28;;;20.50;90.50;;;;;;5134042;27;20186;-41
2022/08/07 09:27:47;;;;;;;2.38;1.70;;;20.50;90.70;;;;;;5110713;28;20604;-41
2022/08/07 09:30:32;;;;;;;3.33;2.10;;;20.60;90.70;;;;;;5123191;27;20229;-41
2022/08/07 09:33:38;;;;;;;2.33;1.55;;;20.60;90.80;;;;;;5130857;27;20189;-41
2022/08/07 09:36:33;;;;;;;5.28;1.88;;;20.70;90.70;;;;;;5108700;27;20276;-41
2022/08/07 09:39:21;;;;;;;4.47;2.42;;;20.70;90.50;;;;;;5097071;28;20325;-42
2022/08/07 09:42:14;;;;;;;5.07;2.08;;;20.70;90.60;;;;;;5108750;28;20205;-37
2022/08/07 09:45:03;;;;;;;3.30;2.30;;;20.70;90.60;;;;;;5109988;28;20692;-36
2022/08/07 09:48:31;;;;;;;2.78;1.90;;;20.90;90.10;;;;;;5110051;28;20230;-37
2022/08/07 09:51:54;;;;;;;2.28;1.80;;;20.90;90.00;;;;;;5108459;28;20185;-34
2022/08/07 09:54:45;;;;;;;3.08;1.80;;;21.00;90.50;;;;;;5026586;28;21075;-35
2022/08/07 09:57:37;;;;;;;3.15;2.10;;;21.00;90.50;;;;;;5090004;28;20210;-38
2022/08/07 10:00:20;;;;;;;2.95;1.88;;;21.10;90.60;;;;;;5109740;28;20206;-35
2022/08/07 10:03:15;;;;;;;3.60;1.80;;;21.20;90.50;;;;;;5109797;28;20647;-35
2022/08/07 10:06:08;;;;;;;3.05;1.77;;;21.30;90.30;;;;;;5108688;28;20194;-35
2022/08/07 10:08:42;;;;;;;2.47;1.80;;;21.40;90.20;;;;;;5109309;28;20565;-35
2022/08/07 10:11:28;;;;;;;2.30;1.55;;;21.40;89.60;;;;;;5126341;27;20209;-35
2022/08/07 10:14:49;;;;;;;2.35;1.98;;;21.50;89.90;;;;;;5111090;27;20205;-35
2022/08/07 10:17:33;;;;;;;2.58;1.50;;;21.50;90.10;;;;;;5109350;28;20193;-35
2022/08/07 10:20:41;;;;;;;3.95;1.85;;;21.50;90.10;;;;;;5108863;28;20238;-36
2022/08/07 10:23:31;;;;;;;3.78;2.33;;;21.60;90.10;;;;;;5109399;28;20190;-36
2022/08/07 10:26:43;;;;;;;2.97;2.30;;;21.70;88.80;;;;;;5109720;27;20695;-36
2022/08/07 10:29:25;;;;;;;2.65;1.92;;;21.80;89.10;;;;;;5107253;27;20671;-37
2022/08/07 10:32:11;;;;;;;2.60;1.80;;;21.70;89.10;;;;;;5109054;28;20201;-36
2022/08/07 10:35:18;;;;;;;4.53;1.85;;;21.70;89.40;;;;;;5108082;28;20277;-36
2022/08/07 10:38:10;;;;;;;2.13;1.60;;;21.80;89.70;;;;;;5091661;28;20210;-36
2022/08/07 10:41:13;;;;;;;2.80;1.90;;;21.80;89.60;;;;;;5109129;28;20210;-36
2022/08/07 10:44:36;;;;;;;3.28;1.85;;;21.80;88.40;;;;;;5120481;27;20217;-37
2022/08/07 10:47:25;;;;;;;2.65;2.10;;;21.90;88.20;;;;;;5090771;28;20225;-36
2022/08/07 10:50:41;;;;;;;3.22;1.88;;;22.00;88.40;;;;;;5108135;28;20202;-36
2022/08/07 10:54:03;;;;;;;2.38;2.17;;;22.10;87.10;;;;;;5108842;28;20206;-35
2022/08/07 10:57:16;;;;;;;3.63;2.35;;;22.10;87.00;;;;;;5025397;28;20201;-35
2022/08/07 11:00:08;;;;;;;1.65;1.30;;;22.10;88.60;;;;;;5010310;28;20542;-36
2022/08/07 11:03:14;;;;;;;2.00;1.70;;;22.10;89.20;;;;;;5108875;28;20680;-36
2022/08/07 11:05:54;;;;;;;2.95;2.45;;;22.20;89.30;;;;;;5121748;27;20197;-36
2022/08/07 11:08:48;;;;;;;3.13;2.38;;;22.20;86.70;;;;;;5094255;28;20228;-36
2022/08/07 11:11:31;;;;;;;3.17;1.73;;;22.30;88.10;;;;;;5129030;28;20317;-36
2022/08/07 11:14:29;;;;;;;2.35;1.88;;;22.30;88.30;;;;;;5129079;28;20744;-36
2022/08/07 11:17:40;;;;;;;2.65;1.70;;;22.30;87.60;;;;;;5128056;28;20204;-36
2022/08/07 11:20:40;;;;;;;5.75;2.28;;;22.30;88.10;;;;;;5108201;28;20259;-35
2022/08/07 11:23:23;;;;;;;2.03;1.83;;;22.40;87.40;;;;;;5077888;28;20619;-36
2022/08/07 11:26:32;;;;;;;4.30;1.92;;;22.40;88.00;;;;;;5129225;28;20201;-35
2022/08/07 11:29:11;;;;;;;2.95;1.90;;;22.50;87.30;;;;;;5130515;27;20287;-35
2022/08/07 11:32:17;;;;;;;2.08;1.88;;;22.50;86.90;;;;;;5149996;27;20296;-36
2022/08/07 11:35:07;;;;;;;3.35;1.98;;;22.50;86.90;;;;;;5136425;27;20283;-36
2022/08/07 11:37:57;;;;;;;2.45;1.95;;;22.50;86.70;;;;;;5112233;28;20640;-35
2022/08/07 11:41:07;;;;;;;3.47;1.55;;;22.60;87.40;;;;;;5128359;28;20194;-36
2022/08/07 11:43:41;;;;;;;2.47;1.70;;;22.60;87.90;;;;;;5128566;28;20710;-36
2022/08/07 11:46:40;;;;;;;2.83;1.70;;;22.70;87.30;;;;;;5113246;28;20194;-36
2022/08/07 11:49:21;;;;;;;4.32;2.20;;;22.70;88.30;;;;;;5128575;28;20262;-36
2022/08/07 11:52:30;;;;;;;2.67;1.80;;;22.80;86.80;;;;;;5111895;28;20197;-36
2022/08/07 11:55:25;;;;;;;1.77;1.67;;;22.80;88.10;;;;;;5120733;28;20199;-36
2022/08/07 11:58:41;;;;;;;2.17;1.80;;;22.80;87.00;;;;;;5109874;28;20354;-36
2022/08/07 12:01:17;;;;;;;2.05;1.50;;;22.90;88.40;;;;;;5067247;28;20198;-36
2022/08/07 12:04:39;;;;;;;3.15;1.80;;;23.00;88.50;;;;;;5117425;27;20204;-36
2022/08/07 12:07:35;;;;;;;4.75;1.90;;;23.00;87.20;;;;;;5090324;27;20695;-36
2022/08/07 12:10:12;;;;;;;2.15;1.70;;;23.10;86.30;;;;;;5131048;27;20201;-36
2022/08/07 12:12:46;;;;;;;3.65;2.08;;;23.10;87.20;;;;;;5119007;27;20237;-36
2022/08/07 12:15:24;;;;;;;3.00;1.60;;;23.20;86.30;;;;;;5111835;28;20212;-36
2022/08/07 12:18:37;;;;;;;2.42;1.63;;;23.10;86.10;;;;;;5096339;28;20205;-36
2022/08/07 12:21:38;;;;;;;2.90;1.73;;;23.20;87.10;;;;;;5111288;28;20221;-36
2022/08/07 12:28:16;;;;;;;3.40;1.60;;;23.30;85.60;;;;;;5090947;27;20234;-36
2022/08/07 12:31:21;;;;;;;3.90;2.00;;;23.30;82.30;;;;;;5130040;27;20246;-36
2022/08/07 12:33:51;;;;;;;2.42;1.48;;;23.40;83.20;;;;;;5151886;27;20476;-36
2022/08/07 12:36:31;;;;;;;2.45;2.00;;;23.30;85.60;;;;;;5135216;27;20204;-35
2022/08/07 12:39:04;;;;;;;6.55;1.95;;;23.40;84.10;;;;;;5152654;27;20193;-35
2022/08/07 12:41:53;;;;;;;2.05;1.60;;;23.40;84.30;;;;;;5151208;27;20686;-36
2022/08/07 12:44:24;;;;;;;4.00;1.70;;;23.40;85.30;;;;;;5130802;27;20201;-35
2022/08/07 12:47:12;;;;;;;2.85;1.77;;;23.40;84.20;;;;;;5116065;27;20652;-36
2022/08/07 12:49:57;;;;;;;2.05;1.58;;;23.50;84.10;;;;;;5125405;27;20289;-35
2022/08/07 12:52:33;;;;;;;1.85;1.50;;;23.60;85.40;;;;;;5093682;28;20208;-35
2022/08/07 12:55:26;;;;;;;2.60;1.58;;;23.60;85.90;;;;;;5110623;28;20196;-36
2022/08/07 12:58:16;;;;;;;2.13;1.83;;;23.70;85.50;;;;;;5110547;28;20634;-35
2022/08/07 13:01:02;;;;;;;2.47;1.60;;;23.70;83.70;;;;;;5111555;27;20295;-35
2022/08/07 13:03:53;;;;;;;2.33;1.38;;;23.80;82.30;;;;;;5121951;27;20206;-36
2022/08/07 13:07:04;;;;;;;2.13;1.55;;;23.80;82.90;;;;;;5131244;27;20233;-36
2022/08/07 13:09:56;;;;;;;2.28;1.35;;;23.80;82.90;;;;;;5130309;27;20605;-36
2022/08/07 13:13:08;;;;;;;1.98;1.60;;;23.80;83.70;;;;;;5131126;27;20494;-35
2022/08/07 13:15:46;;;;;;;3.70;2.10;;;23.80;81.90;;;;;;5130589;27;20635;-36
2022/08/07 13:18:38;;;;;;;5.78;2.30;;;23.90;82.20;;;;;;5112879;27;20259;-36
2022/08/07 13:21:20;;;;;;;2.22;1.52;;;23.90;84.00;;;;;;5127416;27;20237;-35
2022/08/07 13:24:07;;;;;;;1.73;1.55;;;24.00;83.80;;;;;;5115351;27;20293;-35
2022/08/07 13:27:09;;;;;;;2.08;1.60;;;24.10;84.90;;;;;;5130817;27;20629;-35
2022/08/07 13:29:53;;;;;;;3.97;1.70;;;24.20;82.90;;;;;;5119819;27;20188;-35
2022/08/07 13:32:33;;;;;;;2.13;1.55;;;24.20;84.10;;;;;;5151256;27;20279;-36
2022/08/07 13:35:23;;;;;;;1.50;1.40;;;24.30;82.60;;;;;;5117242;27;20234;-36
2022/08/07 13:38:33;;;;;;;2.08;1.73;;;24.40;84.90;;;;;;5127483;27;20301;-36
2022/08/07 13:41:10;;;;;;;4.20;2.03;;;24.50;84.40;;;;;;5130397;27;20237;-36
2022/08/07 13:43:46;;;;;;;4.38;2.10;;;24.50;84.30;;;;;;5130096;27;20312;-36
2022/08/07 13:46:29;;;;;;;2.30;2.10;;;24.50;83.30;;;;;;5130096;27;20194;-35
2022/08/07 13:49:02;;;;;;;2.15;1.80;;;24.60;82.10;;;;;;5129613;27;20711;-35
2022/08/07 13:51:38;;;;;;;2.83;1.60;;;24.70;83.00;;;;;;5129059;27;20316;-36
2022/08/07 13:54:34;;;;;;;2.13;1.88;;;24.70;83.80;;;;;;5123857;27;20388;-35
2022/08/07 13:57:10;;;;;;;2.05;1.33;;;24.80;83.90;;;;;;5119406;27;20703;-36
2022/08/07 13:59:49;;;;;;;1.50;1.40;;;24.80;84.30;;;;;;5130053;27;20209;-36
2022/08/07 14:02:25;;;;;;;2.85;1.55;;;24.90;84.20;;;;;;5112429;27;20613;-36
2022/08/07 14:05:10;;;;;;;1.88;1.65;;;24.90;84.80;;;;;;5128963;27;20300;-35
2022/08/07 14:07:44;;;;;;;2.90;1.73;;;24.90;82.80;;;;;;5125353;27;20604;-36
2022/08/07 14:10:35;;;;;;;2.20;1.58;;;25.00;80.80;;;;;;5095989;27;20191;-36
2022/08/07 14:13:15;;;;;;;1.67;1.58;;;25.00;82.40;;;;;;5130070;27;20200;-36
2022/08/07 14:15:53;;;;;;;1.83;1.50;;;25.00;80.70;;;;;;5129717;27;20655;-36
2022/08/07 14:18:27;;;;;;;3.20;1.60;;;25.00;81.50;;;;;;5129758;27;20563;-36
2022/08/07 14:21:20;;;;;;;3.15;1.50;;;25.00;80.00;;;;;;5128741;27;20277;-36
2022/08/07 14:24:18;;;;;;;2.10;1.60;;;25.00;82.50;;;;;;5129429;27;20197;-36